sensor_id;sensor_type;location;lat;lon;timestamp;P1;durP1;ratioP1;P2;durP2;ratioP2
12218;SDS011;6172;42.646;23.344;2023-01-01T00:02:23;159.53;;;86.13;;
12218;SDS011;6172;42.646;23.344;2023-01-01T00:04:50;120.13;;;69.40;;
12218;SDS011;6172;42.646;23.344;2023-01-01T00:07:17;140.00;;;77.03;;
12218;SDS011;6172;42.646;23.344;2023-01-01T00:09:44;165.67;;;87.73;;
12218;SDS011;6172;42.646;23.344;2023-01-01T00:12:36;154.47;;;77.33;;
12218;SDS011;6172;42.646;23.344;2023-01-01T00:15:03;159.73;;;84.00;;
12218;SDS011;6172;42.646;23.344;2023-01-01T00:17:32;146.77;;;81.17;;
12218;SDS011;6172;42.646;23.344;2023-01-01T00:19:59;157.90;;;82.40;;
12218;SDS011;6172;42.646;23.344;2023-01-01T00:22:26;154.90;;;82.80;;
12218;SDS011;6172;42.646;23.344;2023-01-01T00:24:54;165.53;;;84.87;;
12218;SDS011;6172;42.646;23.344;2023-01-01T00:27:21;150.23;;;84.37;;
12218;SDS011;6172;42.646;23.344;2023-01-01T00:29:48;158.57;;;86.97;;
12218;SDS011;6172;42.646;23.344;2023-01-01T00:32:18;165.53;;;89.50;;
12218;SDS011;6172;42.646;23.344;2023-01-01T00:34:47;164.77;;;87.77;;
12218;SDS011;6172;42.646;23.344;2023-01-01T00:37:14;164.57;;;90.70;;
12218;SDS011;6172;42.646;23.344;2023-01-01T00:39:42;168.17;;;89.27;;
12218;SDS011;6172;42.646;23.344;2023-01-01T00:42:09;160.77;;;85.73;;
12218;SDS011;6172;42.646;23.344;2023-01-01T00:44:36;164.40;;;88.10;;
12218;SDS011;6172;42.646;23.344;2023-01-01T00:47:02;168.50;;;90.93;;
12218;SDS011;6172;42.646;23.344;2023-01-01T00:49:29;163.00;;;90.43;;
12218;SDS011;6172;42.646;23.344;2023-01-01T00:51:58;172.43;;;95.43;;
12218;SDS011;6172;42.646;23.344;2023-01-01T00:54:25;165.37;;;91.00;;
12218;SDS011;6172;42.646;23.344;2023-01-01T00:56:52;174.80;;;92.17;;
12218;SDS011;6172;42.646;23.344;2023-01-01T00:59:19;170.63;;;93.43;;
12218;SDS011;6172;42.646;23.344;2023-01-01T01:01:46;173.90;;;91.80;;
12218;SDS011;6172;42.646;23.344;2023-01-01T01:04:13;177.27;;;91.20;;
12218;SDS011;6172;42.646;23.344;2023-01-01T01:06:40;177.07;;;90.37;;
12218;SDS011;6172;42.646;23.344;2023-01-01T01:09:08;169.93;;;90.87;;
12218;SDS011;6172;42.646;23.344;2023-01-01T01:11:35;185.10;;;97.33;;
12218;SDS011;6172;42.646;23.344;2023-01-01T01:14:02;180.10;;;95.20;;
12218;SDS011;6172;42.646;23.344;2023-01-01T01:16:30;178.97;;;94.00;;
12218;SDS011;6172;42.646;23.344;2023-01-01T01:18:58;174.37;;;93.07;;
12218;SDS011;6172;42.646;23.344;2023-01-01T01:21:27;176.80;;;93.40;;
12218;SDS011;6172;42.646;23.344;2023-01-01T01:23:56;163.60;;;90.70;;
12218;SDS011;6172;42.646;23.344;2023-01-01T01:26:26;184.00;;;94.20;;
12218;SDS011;6172;42.646;23.344;2023-01-01T01:28:54;182.47;;;94.30;;
12218;SDS011;6172;42.646;23.344;2023-01-01T01:31:22;180.10;;;92.83;;
12218;SDS011;6172;42.646;23.344;2023-01-01T01:33:51;175.03;;;92.83;;
12218;SDS011;6172;42.646;23.344;2023-01-01T01:36:18;170.37;;;91.77;;
12218;SDS011;6172;42.646;23.344;2023-01-01T01:38:45;174.80;;;92.83;;
12218;SDS011;6172;42.646;23.344;2023-01-01T01:41:13;174.30;;;92.20;;
12218;SDS011;6172;42.646;23.344;2023-01-01T01:43:51;165.37;;;88.57;;
12218;SDS011;6172;42.646;23.344;2023-01-01T01:46:22;137.70;;;73.73;;
12218;SDS011;6172;42.646;23.344;2023-01-01T01:48:54;162.07;;;84.37;;
12218;SDS011;6172;42.646;23.344;2023-01-01T01:51:25;150.93;;;78.53;;
12218;SDS011;6172;42.646;23.344;2023-01-01T01:53:56;146.03;;;71.57;;
12218;SDS011;6172;42.646;23.344;2023-01-01T01:56:29;135.10;;;70.00;;
12218;SDS011;6172;42.646;23.344;2023-01-01T01:59:01;133.33;;;67.40;;
12218;SDS011;6172;42.646;23.344;2023-01-01T02:01:28;152.73;;;73.00;;
12218;SDS011;6172;42.646;23.344;2023-01-01T02:03:56;126.83;;;63.53;;
12218;SDS011;6172;42.646;23.344;2023-01-01T02:06:24;128.73;;;62.47;;
12218;SDS011;6172;42.646;23.344;2023-01-01T02:08:53;134.63;;;63.10;;
12218;SDS011;6172;42.646;23.344;2023-01-01T02:11:22;135.80;;;62.40;;
12218;SDS011;6172;42.646;23.344;2023-01-01T02:13:49;117.57;;;57.27;;
12218;SDS011;6172;42.646;23.344;2023-01-01T02:16:19;124.30;;;61.07;;
12218;SDS011;6172;42.646;23.344;2023-01-01T02:18:50;119.20;;;61.43;;
12218;SDS011;6172;42.646;23.344;2023-01-01T02:21:24;118.80;;;60.13;;
12218;SDS011;6172;42.646;23.344;2023-01-01T02:24:18;123.50;;;62.80;;
12218;SDS011;6172;42.646;23.344;2023-01-01T02:26:57;131.17;;;63.90;;
12218;SDS011;6172;42.646;23.344;2023-01-01T02:29:32;148.67;;;74.87;;
12218;SDS011;6172;42.646;23.344;2023-01-01T02:32:05;155.70;;;78.60;;
12218;SDS011;6172;42.646;23.344;2023-01-01T02:34:35;156.97;;;80.93;;
12218;SDS011;6172;42.646;23.344;2023-01-01T02:37:06;167.60;;;82.30;;
12218;SDS011;6172;42.646;23.344;2023-01-01T02:39:38;152.23;;;77.60;;
12218;SDS011;6172;42.646;23.344;2023-01-01T02:42:10;150.77;;;74.70;;
12218;SDS011;6172;42.646;23.344;2023-01-01T02:44:39;142.77;;;75.40;;
12218;SDS011;6172;42.646;23.344;2023-01-01T02:47:11;144.97;;;74.33;;
12218;SDS011;6172;42.646;23.344;2023-01-01T02:49:41;145.77;;;75.10;;
12218;SDS011;6172;42.646;23.344;2023-01-01T02:52:17;155.20;;;75.33;;
12218;SDS011;6172;42.646;23.344;2023-01-01T02:54:56;142.10;;;68.93;;
12218;SDS011;6172;42.646;23.344;2023-01-01T02:57:30;140.30;;;71.57;;
12218;SDS011;6172;42.646;23.344;2023-01-01T03:00:04;144.20;;;72.73;;
12218;SDS011;6172;42.646;23.344;2023-01-01T03:02:52;147.53;;;74.17;;
12218;SDS011;6172;42.646;23.344;2023-01-01T03:05:33;142.13;;;74.47;;
12218;SDS011;6172;42.646;23.344;2023-01-01T03:08:28;150.93;;;74.50;;
12218;SDS011;6172;42.646;23.344;2023-01-01T03:11:00;155.87;;;79.13;;
12218;SDS011;6172;42.646;23.344;2023-01-01T03:13:34;156.23;;;76.17;;
12218;SDS011;6172;42.646;23.344;2023-01-01T03:16:08;149.67;;;74.63;;
12218;SDS011;6172;42.646;23.344;2023-01-01T03:18:40;151.13;;;75.97;;
12218;SDS011;6172;42.646;23.344;2023-01-01T03:21:13;148.73;;;68.80;;
12218;SDS011;6172;42.646;23.344;2023-01-01T03:23:44;130.43;;;63.20;;
12218;SDS011;6172;42.646;23.344;2023-01-01T03:26:18;127.43;;;63.10;;
12218;SDS011;6172;42.646;23.344;2023-01-01T03:28:49;129.40;;;65.20;;
12218;SDS011;6172;42.646;23.344;2023-01-01T03:31:23;130.73;;;64.80;;
12218;SDS011;6172;42.646;23.344;2023-01-01T03:33:52;121.10;;;58.43;;
12218;SDS011;6172;42.646;23.344;2023-01-01T03:36:25;123.70;;;62.33;;
12218;SDS011;6172;42.646;23.344;2023-01-01T03:38:58;131.63;;;65.90;;
12218;SDS011;6172;42.646;23.344;2023-01-01T03:41:28;141.47;;;68.10;;
12218;SDS011;6172;42.646;23.344;2023-01-01T03:44:02;138.20;;;68.50;;
12218;SDS011;6172;42.646;23.344;2023-01-01T03:46:34;148.83;;;70.50;;
12218;SDS011;6172;42.646;23.344;2023-01-01T03:49:03;129.70;;;68.07;;
12218;SDS011;6172;42.646;23.344;2023-01-01T03:51:36;137.30;;;66.63;;
12218;SDS011;6172;42.646;23.344;2023-01-01T03:54:21;124.07;;;63.47;;
12218;SDS011;6172;42.646;23.344;2023-01-01T03:56:56;137.93;;;69.20;;
12218;SDS011;6172;42.646;23.344;2023-01-01T03:59:32;127.97;;;63.77;;
12218;SDS011;6172;42.646;23.344;2023-01-01T04:02:07;133.67;;;62.07;;
12218;SDS011;6172;42.646;23.344;2023-01-01T04:04:36;136.10;;;63.13;;
12218;SDS011;6172;42.646;23.344;2023-01-01T04:07:03;123.90;;;63.43;;
12218;SDS011;6172;42.646;23.344;2023-01-01T04:09:31;133.30;;;67.80;;
12218;SDS011;6172;42.646;23.344;2023-01-01T04:12:02;138.60;;;68.03;;
12218;SDS011;6172;42.646;23.344;2023-01-01T04:14:31;147.20;;;68.37;;
12218;SDS011;6172;42.646;23.344;2023-01-01T04:16:59;122.37;;;61.13;;
12218;SDS011;6172;42.646;23.344;2023-01-01T04:19:31;142.80;;;71.20;;
12218;SDS011;6172;42.646;23.344;2023-01-01T04:21:58;141.23;;;69.40;;
12218;SDS011;6172;42.646;23.344;2023-01-01T04:24:25;137.87;;;68.50;;
12218;SDS011;6172;42.646;23.344;2023-01-01T04:26:53;144.73;;;70.40;;
12218;SDS011;6172;42.646;23.344;2023-01-01T04:29:20;133.43;;;65.57;;
12218;SDS011;6172;42.646;23.344;2023-01-01T04:31:48;136.63;;;67.07;;
12218;SDS011;6172;42.646;23.344;2023-01-01T04:34:15;130.57;;;66.03;;
12218;SDS011;6172;42.646;23.344;2023-01-01T04:36:43;134.90;;;65.87;;
12218;SDS011;6172;42.646;23.344;2023-01-01T04:39:10;130.00;;;60.63;;
12218;SDS011;6172;42.646;23.344;2023-01-01T04:41:38;121.00;;;60.40;;
12218;SDS011;6172;42.646;23.344;2023-01-01T04:44:05;136.20;;;66.10;;
12218;SDS011;6172;42.646;23.344;2023-01-01T04:46:32;142.73;;;68.87;;
12218;SDS011;6172;42.646;23.344;2023-01-01T04:48:59;134.93;;;64.50;;
12218;SDS011;6172;42.646;23.344;2023-01-01T04:51:26;141.47;;;64.93;;
12218;SDS011;6172;42.646;23.344;2023-01-01T04:53:54;141.60;;;66.90;;
12218;SDS011;6172;42.646;23.344;2023-01-01T04:56:21;135.67;;;66.67;;
12218;SDS011;6172;42.646;23.344;2023-01-01T04:58:48;137.90;;;66.73;;
12218;SDS011;6172;42.646;23.344;2023-01-01T05:01:16;123.70;;;61.57;;
12218;SDS011;6172;42.646;23.344;2023-01-01T05:03:45;140.93;;;69.30;;
12218;SDS011;6172;42.646;23.344;2023-01-01T05:06:12;145.70;;;70.87;;
12218;SDS011;6172;42.646;23.344;2023-01-01T05:08:40;145.63;;;74.43;;
12218;SDS011;6172;42.646;23.344;2023-01-01T05:11:10;143.67;;;68.00;;
12218;SDS011;6172;42.646;23.344;2023-01-01T05:13:39;109.13;;;51.50;;
12218;SDS011;6172;42.646;23.344;2023-01-01T05:16:08;89.57;;;46.00;;
12218;SDS011;6172;42.646;23.344;2023-01-01T05:18:37;119.97;;;57.33;;
12218;SDS011;6172;42.646;23.344;2023-01-01T05:21:05;114.23;;;54.70;;
12218;SDS011;6172;42.646;23.344;2023-01-01T05:23:33;132.37;;;64.80;;
12218;SDS011;6172;42.646;23.344;2023-01-01T05:26:06;124.03;;;61.00;;
12218;SDS011;6172;42.646;23.344;2023-01-01T05:28:36;113.10;;;55.57;;
12218;SDS011;6172;42.646;23.344;2023-01-01T05:31:04;121.20;;;55.30;;
12218;SDS011;6172;42.646;23.344;2023-01-01T05:33:32;129.90;;;59.17;;
12218;SDS011;6172;42.646;23.344;2023-01-01T05:36:00;108.13;;;56.33;;
12218;SDS011;6172;42.646;23.344;2023-01-01T05:38:27;105.30;;;53.90;;
12218;SDS011;6172;42.646;23.344;2023-01-01T05:40:54;123.07;;;58.37;;
12218;SDS011;6172;42.646;23.344;2023-01-01T05:43:22;112.77;;;57.30;;
12218;SDS011;6172;42.646;23.344;2023-01-01T05:45:59;116.23;;;54.53;;
12218;SDS011;6172;42.646;23.344;2023-01-01T05:48:28;114.97;;;54.33;;
12218;SDS011;6172;42.646;23.344;2023-01-01T05:51:00;110.90;;;53.93;;
12218;SDS011;6172;42.646;23.344;2023-01-01T05:53:27;113.87;;;54.10;;
12218;SDS011;6172;42.646;23.344;2023-01-01T05:55:55;109.07;;;53.37;;
12218;SDS011;6172;42.646;23.344;2023-01-01T05:58:22;106.13;;;53.73;;
12218;SDS011;6172;42.646;23.344;2023-01-01T06:00:49;100.93;;;53.67;;
12218;SDS011;6172;42.646;23.344;2023-01-01T06:03:17;82.97;;;43.27;;
12218;SDS011;6172;42.646;23.344;2023-01-01T06:05:44;114.50;;;56.30;;
12218;SDS011;6172;42.646;23.344;2023-01-01T06:08:11;113.97;;;54.47;;
12218;SDS011;6172;42.646;23.344;2023-01-01T06:10:38;107.33;;;52.97;;
12218;SDS011;6172;42.646;23.344;2023-01-01T06:13:05;115.27;;;53.27;;
12218;SDS011;6172;42.646;23.344;2023-01-01T06:15:32;88.57;;;45.93;;
12218;SDS011;6172;42.646;23.344;2023-01-01T06:17:59;83.57;;;42.40;;
12218;SDS011;6172;42.646;23.344;2023-01-01T06:20:27;108.80;;;50.40;;
12218;SDS011;6172;42.646;23.344;2023-01-01T06:22:55;108.73;;;51.80;;
12218;SDS011;6172;42.646;23.344;2023-01-01T06:25:21;107.07;;;50.13;;
12218;SDS011;6172;42.646;23.344;2023-01-01T06:27:48;107.70;;;52.67;;
12218;SDS011;6172;42.646;23.344;2023-01-01T06:30:15;104.07;;;51.83;;
12218;SDS011;6172;42.646;23.344;2023-01-01T06:32:42;92.27;;;49.13;;
12218;SDS011;6172;42.646;23.344;2023-01-01T06:35:09;95.53;;;48.60;;
12218;SDS011;6172;42.646;23.344;2023-01-01T06:37:37;102.10;;;50.83;;
12218;SDS011;6172;42.646;23.344;2023-01-01T06:40:04;96.10;;;50.50;;
12218;SDS011;6172;42.646;23.344;2023-01-01T06:42:32;89.97;;;47.03;;
12218;SDS011;6172;42.646;23.344;2023-01-01T06:44:59;80.43;;;42.80;;
12218;SDS011;6172;42.646;23.344;2023-01-01T06:47:26;100.90;;;51.87;;
12218;SDS011;6172;42.646;23.344;2023-01-01T06:49:53;106.83;;;56.97;;
12218;SDS011;6172;42.646;23.344;2023-01-01T06:52:20;101.83;;;54.97;;
12218;SDS011;6172;42.646;23.344;2023-01-01T06:54:48;99.20;;;53.77;;
12218;SDS011;6172;42.646;23.344;2023-01-01T06:57:15;103.80;;;53.67;;
12218;SDS011;6172;42.646;23.344;2023-01-01T06:59:42;97.87;;;54.40;;
12218;SDS011;6172;42.646;23.344;2023-01-01T07:02:09;107.30;;;54.53;;
12218;SDS011;6172;42.646;23.344;2023-01-01T07:04:36;104.53;;;56.07;;
12218;SDS011;6172;42.646;23.344;2023-01-01T07:07:03;109.40;;;57.27;;
12218;SDS011;6172;42.646;23.344;2023-01-01T07:09:30;112.57;;;58.40;;
12218;SDS011;6172;42.646;23.344;2023-01-01T07:11:59;113.63;;;65.07;;
12218;SDS011;6172;42.646;23.344;2023-01-01T07:14:26;112.37;;;61.93;;
12218;SDS011;6172;42.646;23.344;2023-01-01T07:16:53;133.83;;;67.70;;
12218;SDS011;6172;42.646;23.344;2023-01-01T07:19:21;134.47;;;70.97;;
12218;SDS011;6172;42.646;23.344;2023-01-01T07:21:50;143.53;;;77.83;;
12218;SDS011;6172;42.646;23.344;2023-01-01T07:24:19;139.70;;;74.77;;
12218;SDS011;6172;42.646;23.344;2023-01-01T07:26:48;141.67;;;75.87;;
12218;SDS011;6172;42.646;23.344;2023-01-01T07:29:16;134.33;;;72.47;;
12218;SDS011;6172;42.646;23.344;2023-01-01T07:31:43;101.40;;;56.70;;
12218;SDS011;6172;42.646;23.344;2023-01-01T07:34:12;103.10;;;55.77;;
12218;SDS011;6172;42.646;23.344;2023-01-01T07:36:40;80.80;;;46.57;;
12218;SDS011;6172;42.646;23.344;2023-01-01T07:39:08;80.63;;;44.63;;
12218;SDS011;6172;42.646;23.344;2023-01-01T07:41:35;80.47;;;44.80;;
12218;SDS011;6172;42.646;23.344;2023-01-01T07:44:02;72.67;;;43.63;;
12218;SDS011;6172;42.646;23.344;2023-01-01T07:46:31;84.13;;;47.37;;
12218;SDS011;6172;42.646;23.344;2023-01-01T07:48:59;72.30;;;43.33;;
12218;SDS011;6172;42.646;23.344;2023-01-01T07:51:27;70.07;;;39.70;;
12218;SDS011;6172;42.646;23.344;2023-01-01T07:53:54;72.37;;;41.57;;
12218;SDS011;6172;42.646;23.344;2023-01-01T07:56:20;96.03;;;52.37;;
12218;SDS011;6172;42.646;23.344;2023-01-01T07:58:48;100.00;;;54.33;;
12218;SDS011;6172;42.646;23.344;2023-01-01T08:01:15;106.93;;;59.17;;
12218;SDS011;6172;42.646;23.344;2023-01-01T08:03:46;106.03;;;58.33;;
12218;SDS011;6172;42.646;23.344;2023-01-01T08:06:18;95.33;;;53.40;;
12218;SDS011;6172;42.646;23.344;2023-01-01T08:08:47;86.70;;;50.33;;
12218;SDS011;6172;42.646;23.344;2023-01-01T08:11:14;95.40;;;48.57;;
12218;SDS011;6172;42.646;23.344;2023-01-01T08:13:41;79.60;;;46.40;;
12218;SDS011;6172;42.646;23.344;2023-01-01T08:16:08;73.27;;;43.90;;
12218;SDS011;6172;42.646;23.344;2023-01-01T08:18:35;78.90;;;46.17;;
12218;SDS011;6172;42.646;23.344;2023-01-01T08:21:03;83.97;;;46.83;;
12218;SDS011;6172;42.646;23.344;2023-01-01T08:23:31;75.43;;;43.83;;
12218;SDS011;6172;42.646;23.344;2023-01-01T08:25:58;73.23;;;45.03;;
12218;SDS011;6172;42.646;23.344;2023-01-01T08:28:26;77.13;;;46.00;;
12218;SDS011;6172;42.646;23.344;2023-01-01T08:30:55;77.83;;;45.33;;
12218;SDS011;6172;42.646;23.344;2023-01-01T08:33:23;85.13;;;49.30;;
12218;SDS011;6172;42.646;23.344;2023-01-01T08:35:50;89.20;;;50.40;;
12218;SDS011;6172;42.646;23.344;2023-01-01T08:38:19;82.80;;;49.87;;
12218;SDS011;6172;42.646;23.344;2023-01-01T08:40:49;78.93;;;46.30;;
12218;SDS011;6172;42.646;23.344;2023-01-01T08:43:16;79.33;;;47.43;;
12218;SDS011;6172;42.646;23.344;2023-01-01T08:45:43;75.37;;;46.40;;
12218;SDS011;6172;42.646;23.344;2023-01-01T08:48:10;79.33;;;46.47;;
12218;SDS011;6172;42.646;23.344;2023-01-01T08:50:37;78.67;;;44.53;;
12218;SDS011;6172;42.646;23.344;2023-01-01T08:53:04;81.43;;;46.40;;
12218;SDS011;6172;42.646;23.344;2023-01-01T08:55:32;72.40;;;45.07;;
12218;SDS011;6172;42.646;23.344;2023-01-01T08:58:00;68.90;;;43.13;;
12218;SDS011;6172;42.646;23.344;2023-01-01T09:00:27;71.50;;;43.93;;
12218;SDS011;6172;42.646;23.344;2023-01-01T09:02:57;70.23;;;42.53;;
12218;SDS011;6172;42.646;23.344;2023-01-01T09:05:25;65.07;;;41.80;;
12218;SDS011;6172;42.646;23.344;2023-01-01T09:07:53;64.17;;;39.90;;
12218;SDS011;6172;42.646;23.344;2023-01-01T09:10:20;66.90;;;39.40;;
12218;SDS011;6172;42.646;23.344;2023-01-01T09:12:48;61.13;;;39.87;;
12218;SDS011;6172;42.646;23.344;2023-01-01T09:15:15;61.50;;;37.13;;
12218;SDS011;6172;42.646;23.344;2023-01-01T09:17:42;55.80;;;36.37;;
12218;SDS011;6172;42.646;23.344;2023-01-01T09:20:10;63.67;;;40.40;;
12218;SDS011;6172;42.646;23.344;2023-01-01T09:22:37;67.90;;;43.77;;
12218;SDS011;6172;42.646;23.344;2023-01-01T09:25:04;70.33;;;44.67;;
12218;SDS011;6172;42.646;23.344;2023-01-01T09:27:31;69.50;;;43.03;;
12218;SDS011;6172;42.646;23.344;2023-01-01T09:29:59;73.23;;;42.93;;
12218;SDS011;6172;42.646;23.344;2023-01-01T09:32:27;66.87;;;41.90;;
12218;SDS011;6172;42.646;23.344;2023-01-01T09:34:54;68.33;;;43.27;;
12218;SDS011;6172;42.646;23.344;2023-01-01T09:37:21;67.00;;;42.43;;
12218;SDS011;6172;42.646;23.344;2023-01-01T09:39:50;65.57;;;42.00;;
12218;SDS011;6172;42.646;23.344;2023-01-01T09:42:28;66.70;;;43.17;;
12218;SDS011;6172;42.646;23.344;2023-01-01T09:47:52;62.70;;;41.67;;
12218;SDS011;6172;42.646;23.344;2023-01-01T09:50:23;66.70;;;42.47;;
12218;SDS011;6172;42.646;23.344;2023-01-01T09:52:57;65.80;;;41.87;;
12218;SDS011;6172;42.646;23.344;2023-01-01T09:55:27;65.13;;;42.80;;
12218;SDS011;6172;42.646;23.344;2023-01-01T09:57:57;67.40;;;43.70;;
12218;SDS011;6172;42.646;23.344;2023-01-01T10:00:26;66.57;;;43.97;;
12218;SDS011;6172;42.646;23.344;2023-01-01T10:03:02;66.43;;;42.93;;
12218;SDS011;6172;42.646;23.344;2023-01-01T10:05:41;67.80;;;43.33;;
12218;SDS011;6172;42.646;23.344;2023-01-01T10:08:26;62.07;;;41.50;;
12218;SDS011;6172;42.646;23.344;2023-01-01T10:11:04;67.80;;;40.83;;
12218;SDS011;6172;42.646;23.344;2023-01-01T10:13:38;63.67;;;40.63;;
12218;SDS011;6172;42.646;23.344;2023-01-01T10:16:14;59.67;;;42.07;;
12218;SDS011;6172;42.646;23.344;2023-01-01T10:18:49;60.40;;;39.97;;
12218;SDS011;6172;42.646;23.344;2023-01-01T10:21:20;59.20;;;40.23;;
12218;SDS011;6172;42.646;23.344;2023-01-01T10:24:11;61.37;;;39.97;;
12218;SDS011;6172;42.646;23.344;2023-01-01T10:26:57;57.00;;;37.60;;
12218;SDS011;6172;42.646;23.344;2023-01-01T10:29:35;60.90;;;39.30;;
12218;SDS011;6172;42.646;23.344;2023-01-01T10:32:15;56.90;;;38.93;;
12218;SDS011;6172;42.646;23.344;2023-01-01T10:34:45;54.33;;;36.67;;
12218;SDS011;6172;42.646;23.344;2023-01-01T10:37:24;54.73;;;37.37;;
12218;SDS011;6172;42.646;23.344;2023-01-01T10:39:59;55.53;;;36.60;;
12218;SDS011;6172;42.646;23.344;2023-01-01T10:42:32;53.47;;;36.87;;
12218;SDS011;6172;42.646;23.344;2023-01-01T10:45:04;53.80;;;35.87;;
12218;SDS011;6172;42.646;23.344;2023-01-01T10:47:33;52.93;;;35.60;;
12218;SDS011;6172;42.646;23.344;2023-01-01T10:50:01;53.53;;;36.13;;
12218;SDS011;6172;42.646;23.344;2023-01-01T10:52:33;51.53;;;35.13;;
12218;SDS011;6172;42.646;23.344;2023-01-01T10:55:02;52.10;;;35.00;;
12218;SDS011;6172;42.646;23.344;2023-01-01T10:57:32;49.73;;;34.57;;
12218;SDS011;6172;42.646;23.344;2023-01-01T11:03:10;46.97;;;32.90;;
12218;SDS011;6172;42.646;23.344;2023-01-01T11:05:48;46.17;;;32.57;;
12218;SDS011;6172;42.646;23.344;2023-01-01T11:08:27;48.73;;;32.63;;
12218;SDS011;6172;42.646;23.344;2023-01-01T11:10:56;47.47;;;31.33;;
12218;SDS011;6172;42.646;23.344;2023-01-01T11:13:25;44.17;;;30.60;;
12218;SDS011;6172;42.646;23.344;2023-01-01T11:15:55;44.70;;;31.13;;
12218;SDS011;6172;42.646;23.344;2023-01-01T11:18:26;45.40;;;30.10;;
12218;SDS011;6172;42.646;23.344;2023-01-01T11:20:59;42.83;;;29.30;;
12218;SDS011;6172;42.646;23.344;2023-01-01T11:23:29;45.60;;;30.20;;
12218;SDS011;6172;42.646;23.344;2023-01-01T11:26:03;43.83;;;30.60;;
12218;SDS011;6172;42.646;23.344;2023-01-01T11:28:34;43.87;;;30.33;;
12218;SDS011;6172;42.646;23.344;2023-01-01T11:31:06;42.40;;;28.57;;
12218;SDS011;6172;42.646;23.344;2023-01-01T11:33:48;42.10;;;28.53;;
12218;SDS011;6172;42.646;23.344;2023-01-01T11:36:19;39.67;;;27.60;;
12218;SDS011;6172;42.646;23.344;2023-01-01T11:38:48;38.07;;;26.80;;
12218;SDS011;6172;42.646;23.344;2023-01-01T11:41:38;39.87;;;26.77;;
12218;SDS011;6172;42.646;23.344;2023-01-01T11:44:09;44.03;;;27.47;;
12218;SDS011;6172;42.646;23.344;2023-01-01T11:46:39;41.90;;;27.00;;
12218;SDS011;6172;42.646;23.344;2023-01-01T11:49:13;40.63;;;26.20;;
12218;SDS011;6172;42.646;23.344;2023-01-01T11:51:47;40.67;;;26.90;;
12218;SDS011;6172;42.646;23.344;2023-01-01T11:54:21;40.10;;;26.43;;
12218;SDS011;6172;42.646;23.344;2023-01-01T11:56:52;43.97;;;27.07;;
12218;SDS011;6172;42.646;23.344;2023-01-01T11:59:22;40.93;;;27.07;;
12218;SDS011;6172;42.646;23.344;2023-01-01T12:01:56;38.73;;;24.67;;
12218;SDS011;6172;42.646;23.344;2023-01-01T12:04:30;37.10;;;24.20;;
12218;SDS011;6172;42.646;23.344;2023-01-01T12:07:05;32.60;;;23.53;;
12218;SDS011;6172;42.646;23.344;2023-01-01T12:09:35;35.13;;;23.37;;
12218;SDS011;6172;42.646;23.344;2023-01-01T12:12:10;33.07;;;22.33;;
12218;SDS011;6172;42.646;23.344;2023-01-01T12:14:43;30.57;;;22.10;;
12218;SDS011;6172;42.646;23.344;2023-01-01T12:17:20;36.00;;;22.23;;
12218;SDS011;6172;42.646;23.344;2023-01-01T12:19:54;32.03;;;21.17;;
12218;SDS011;6172;42.646;23.344;2023-01-01T12:22:26;32.87;;;22.03;;
12218;SDS011;6172;42.646;23.344;2023-01-01T12:24:53;33.60;;;21.53;;
12218;SDS011;6172;42.646;23.344;2023-01-01T12:27:26;33.13;;;22.23;;
12218;SDS011;6172;42.646;23.344;2023-01-01T12:30:07;29.80;;;20.97;;
12218;SDS011;6172;42.646;23.344;2023-01-01T12:32:48;35.27;;;22.00;;
12218;SDS011;6172;42.646;23.344;2023-01-01T12:35:33;36.00;;;20.77;;
12218;SDS011;6172;42.646;23.344;2023-01-01T12:38:12;30.53;;;20.80;;
12218;SDS011;6172;42.646;23.344;2023-01-01T12:40:50;31.40;;;20.03;;
12218;SDS011;6172;42.646;23.344;2023-01-01T12:43:26;31.50;;;20.87;;
12218;SDS011;6172;42.646;23.344;2023-01-01T12:46:25;29.17;;;18.87;;
12218;SDS011;6172;42.646;23.344;2023-01-01T12:49:28;28.33;;;19.40;;
12218;SDS011;6172;42.646;23.344;2023-01-01T12:58:13;33.57;;;20.47;;
12218;SDS011;6172;42.646;23.344;2023-01-01T13:00:46;29.80;;;20.73;;
12218;SDS011;6172;42.646;23.344;2023-01-01T13:03:20;30.40;;;20.30;;
12218;SDS011;6172;42.646;23.344;2023-01-01T13:05:54;33.77;;;21.07;;
12218;SDS011;6172;42.646;23.344;2023-01-01T13:11:07;35.07;;;22.10;;
12218;SDS011;6172;42.646;23.344;2023-01-01T13:13:38;32.00;;;21.97;;
12218;SDS011;6172;42.646;23.344;2023-01-01T13:16:08;30.00;;;20.37;;
12218;SDS011;6172;42.646;23.344;2023-01-01T13:18:49;35.37;;;22.00;;
12218;SDS011;6172;42.646;23.344;2023-01-01T13:21:20;29.90;;;19.67;;
12218;SDS011;6172;42.646;23.344;2023-01-01T13:23:52;32.20;;;20.80;;
12218;SDS011;6172;42.646;23.344;2023-01-01T13:26:30;32.17;;;20.53;;
12218;SDS011;6172;42.646;23.344;2023-01-01T13:32:02;28.73;;;20.27;;
12218;SDS011;6172;42.646;23.344;2023-01-01T13:34:36;31.23;;;19.83;;
12218;SDS011;6172;42.646;23.344;2023-01-01T13:40:38;29.07;;;20.13;;
12218;SDS011;6172;42.646;23.344;2023-01-01T13:43:25;29.43;;;19.50;;
12218;SDS011;6172;42.646;23.344;2023-01-01T13:45:55;28.97;;;19.37;;
12218;SDS011;6172;42.646;23.344;2023-01-01T13:58:36;29.17;;;18.37;;
12218;SDS011;6172;42.646;23.344;2023-01-01T14:01:36;31.27;;;18.80;;
12218;SDS011;6172;42.646;23.344;2023-01-01T14:04:28;29.03;;;18.97;;
12218;SDS011;6172;42.646;23.344;2023-01-01T14:07:02;30.37;;;18.53;;
12218;SDS011;6172;42.646;23.344;2023-01-01T14:09:39;28.13;;;18.27;;
12218;SDS011;6172;42.646;23.344;2023-01-01T14:12:12;27.97;;;18.87;;
12218;SDS011;6172;42.646;23.344;2023-01-01T14:14:44;31.60;;;18.10;;
12218;SDS011;6172;42.646;23.344;2023-01-01T14:17:12;31.53;;;19.20;;
12218;SDS011;6172;42.646;23.344;2023-01-01T14:19:43;29.83;;;17.77;;
12218;SDS011;6172;42.646;23.344;2023-01-01T14:22:12;32.50;;;19.63;;
12218;SDS011;6172;42.646;23.344;2023-01-01T14:24:55;29.43;;;18.03;;
12218;SDS011;6172;42.646;23.344;2023-01-01T14:27:22;34.23;;;19.77;;
12218;SDS011;6172;42.646;23.344;2023-01-01T14:32:40;32.47;;;19.27;;
12218;SDS011;6172;42.646;23.344;2023-01-01T14:35:12;39.97;;;21.07;;
12218;SDS011;6172;42.646;23.344;2023-01-01T14:37:41;32.87;;;20.87;;
12218;SDS011;6172;42.646;23.344;2023-01-01T14:40:16;37.37;;;21.00;;
12218;SDS011;6172;42.646;23.344;2023-01-01T14:42:52;34.30;;;19.90;;
12218;SDS011;6172;42.646;23.344;2023-01-01T14:45:25;30.70;;;20.43;;
12218;SDS011;6172;42.646;23.344;2023-01-01T14:47:56;32.40;;;20.53;;
12218;SDS011;6172;42.646;23.344;2023-01-01T14:50:25;38.73;;;21.43;;
12218;SDS011;6172;42.646;23.344;2023-01-01T14:52:57;37.43;;;21.67;;
12218;SDS011;6172;42.646;23.344;2023-01-01T14:55:31;32.80;;;21.60;;
12218;SDS011;6172;42.646;23.344;2023-01-01T14:58:04;35.03;;;20.67;;
12218;SDS011;6172;42.646;23.344;2023-01-01T15:00:33;35.40;;;23.20;;
12218;SDS011;6172;42.646;23.344;2023-01-01T15:03:04;38.40;;;22.17;;
12218;SDS011;6172;42.646;23.344;2023-01-01T15:05:33;39.70;;;22.50;;
12218;SDS011;6172;42.646;23.344;2023-01-01T15:08:02;36.23;;;22.00;;
12218;SDS011;6172;42.646;23.344;2023-01-01T15:10:31;34.63;;;21.67;;
12218;SDS011;6172;42.646;23.344;2023-01-01T15:13:02;34.37;;;21.80;;